createdAt,value
2022-12-03T00:00:15.949Z,25.87
2022-12-03T00:02:44.273Z,26.83
2022-12-03T00:05:12.719Z,25.43
2022-12-03T00:07:41.408Z,28.00
2022-12-03T00:10:12.274Z,27.23
2022-12-03T00:12:40.402Z,29.47
2022-12-03T00:15:09.952Z,26.77
2022-12-03T00:17:38.384Z,23.90
2022-12-03T00:20:08.527Z,28.13
2022-12-03T00:22:36.710Z,25.17
2022-12-03T00:25:05.134Z,24.90
2022-12-03T00:27:34.629Z,26.40
2022-12-03T00:30:02.748Z,28.43
2022-12-03T00:32:30.876Z,28.30
2022-12-03T00:34:58.937Z,24.47
2022-12-03T00:37:27.306Z,26.67
2022-12-03T00:39:55.342Z,25.50
2022-12-03T00:42:23.410Z,29.00
2022-12-03T00:44:53.239Z,26.10
2022-12-03T00:47:21.632Z,24.13
2022-12-03T00:49:49.737Z,22.57
2022-12-03T00:52:17.804Z,28.93
2022-12-03T00:54:45.882Z,24.17
2022-12-03T00:57:13.900Z,24.47
2022-12-03T00:59:42.172Z,30.40
2022-12-03T01:02:11.897Z,27.90
2022-12-03T01:04:40.147Z,26.60
2022-12-03T01:07:08.318Z,25.93
2022-12-03T01:09:36.380Z,22.23
2022-12-03T01:12:04.841Z,22.93
2022-12-03T01:14:32.988Z,22.77
2022-12-03T01:17:01.082Z,21.13
2022-12-03T01:19:30.556Z,24.40
2022-12-03T01:21:58.761Z,25.90
2022-12-03T01:24:27.100Z,20.93
2022-12-03T01:26:56.651Z,19.13
2022-12-03T01:29:24.762Z,25.97
2022-12-03T01:32:10.302Z,23.73
2022-12-03T01:34:39.777Z,24.67
2022-12-03T01:37:08.100Z,23.57
2022-12-03T01:39:36.155Z,22.00
2022-12-03T01:42:05.542Z,22.97
2022-12-03T01:44:35.392Z,26.30
2022-12-03T01:47:07.669Z,23.10
2022-12-03T01:49:43.555Z,22.10
2022-12-03T01:52:14.287Z,26.50
2022-12-03T01:54:46.942Z,23.10
2022-12-03T01:57:23.004Z,30.50
2022-12-03T01:59:51.621Z,22.50
2022-12-03T02:02:24.077Z,25.17
2022-12-03T02:04:54.822Z,24.97
2022-12-03T02:07:26.665Z,22.20
2022-12-03T02:09:56.471Z,25.23
2022-12-03T02:12:28.758Z,24.97
2022-12-03T02:14:57.440Z,23.37
2022-12-03T02:17:26.612Z,22.47
2022-12-03T02:19:57.550Z,25.07
2022-12-03T02:22:35.534Z,25.67
2022-12-03T02:25:16.903Z,21.70
2022-12-03T02:27:45.685Z,23.40
2022-12-03T02:30:20.157Z,23.53
2022-12-03T02:32:48.916Z,28.70
2022-12-03T02:35:18.897Z,24.13
2022-12-03T02:37:48.776Z,25.70
2022-12-03T02:40:21.622Z,25.60
2022-12-03T02:42:51.721Z,24.00
2022-12-03T02:45:23.696Z,24.60
2022-12-03T02:47:56.057Z,27.93
2022-12-03T02:50:30.237Z,22.37
2022-12-03T02:53:00.243Z,21.30
2022-12-03T02:55:36.821Z,22.00
2022-12-03T02:58:06.571Z,27.23
2022-12-03T03:00:36.534Z,28.83
2022-12-03T03:03:07.709Z,27.00
2022-12-03T03:05:37.874Z,32.03
2022-12-03T03:08:07.036Z,36.57
2022-12-03T03:10:38.330Z,39.90
2022-12-03T03:13:10.581Z,44.67
2022-12-03T03:15:40.638Z,47.47
2022-12-03T03:18:10.804Z,43.03
2022-12-03T03:20:39.746Z,55.57
2022-12-03T03:23:14.266Z,52.23
2022-12-03T03:25:46.339Z,57.77
2022-12-03T03:28:16.151Z,66.87
2022-12-03T03:30:45.912Z,57.97
2022-12-03T03:33:15.736Z,55.57
2022-12-03T03:35:45.410Z,57.63
2022-12-03T03:38:14.273Z,54.77
2022-12-03T03:40:44.603Z,69.53
2022-12-03T03:43:14.242Z,60.07
2022-12-03T03:45:43.200Z,56.73
2022-12-03T03:48:12.445Z,49.13
2022-12-03T03:50:41.154Z,55.63
2022-12-03T03:53:09.781Z,67.53
2022-12-03T03:55:37.927Z,53.97
2022-12-03T03:58:07.671Z,50.37
2022-12-03T04:00:37.111Z,51.37
2022-12-03T04:03:05.422Z,53.97
2022-12-03T04:05:33.587Z,61.13
2022-12-03T04:08:01.842Z,55.63
2022-12-03T04:10:47.188Z,55.20
2022-12-03T04:13:16.640Z,47.77
2022-12-03T04:15:44.711Z,51.73
2022-12-03T04:18:30.421Z,56.50
2022-12-03T04:21:18.491Z,47.80
2022-12-03T04:23:45.599Z,51.27
2022-12-03T04:26:31.176Z,59.13
2022-12-03T04:29:00.696Z,56.33
2022-12-03T04:31:46.453Z,52.50
2022-12-03T04:34:31.916Z,54.30
2022-12-03T04:36:59.988Z,60.90
2022-12-03T04:39:28.071Z,57.90
2022-12-03T04:41:56.213Z,76.60
2022-12-03T04:44:36.302Z,75.13
2022-12-03T04:47:07.468Z,81.03
2022-12-03T04:49:36.498Z,91.27
2022-12-03T04:52:05.165Z,87.37
2022-12-03T04:54:33.244Z,92.80
2022-12-03T04:57:01.307Z,105.37
2022-12-03T04:59:30.863Z,77.67
2022-12-03T05:01:59.101Z,108.57
2022-12-03T05:04:27.591Z,103.27
2022-12-03T05:06:55.901Z,117.47
2022-12-03T05:09:24.484Z,106.13
2022-12-03T05:11:52.529Z,125.13
2022-12-03T05:14:20.618Z,123.53
2022-12-03T05:16:50.287Z,124.07
2022-12-03T05:19:18.508Z,132.63
2022-12-03T05:21:45.622Z,136.00
2022-12-03T05:24:13.877Z,119.03
2022-12-03T05:26:41.951Z,115.77
2022-12-03T05:29:10.228Z,130.53
2022-12-03T05:31:38.403Z,125.67
2022-12-03T05:34:08.147Z,126.43
2022-12-03T05:36:36.258Z,126.67
2022-12-03T05:39:04.395Z,123.00
2022-12-03T05:41:49.924Z,132.07
2022-12-03T05:44:21.976Z,118.93
2022-12-03T05:46:53.834Z,89.07
2022-12-03T05:49:25.556Z,93.97
2022-12-03T05:51:58.194Z,75.23
2022-12-03T05:54:27.300Z,79.13
2022-12-03T05:56:55.504Z,64.67
2022-12-03T05:59:23.575Z,67.47
2022-12-03T06:01:51.612Z,60.93
2022-12-03T06:04:19.764Z,68.10
2022-12-03T06:06:49.504Z,61.27
2022-12-03T06:09:17.696Z,64.57
2022-12-03T06:11:45.799Z,65.77
2022-12-03T06:14:13.878Z,55.67
2022-12-03T06:16:42.021Z,74.73
2022-12-03T06:19:10.507Z,61.80
2022-12-03T06:21:38.765Z,53.40
2022-12-03T06:24:08.666Z,62.73
2022-12-03T06:26:36.814Z,61.30
2022-12-03T06:29:07.775Z,68.67
2022-12-03T06:31:35.977Z,52.97
2022-12-03T06:34:04.601Z,43.93
2022-12-03T06:36:32.663Z,37.30
2022-12-03T06:39:00.983Z,35.27
2022-12-03T06:41:30.469Z,39.50
2022-12-03T06:43:58.587Z,33.80
2022-12-03T06:46:26.820Z,32.97
2022-12-03T06:48:55.025Z,28.73
2022-12-03T06:51:23.130Z,28.23
2022-12-03T06:53:51.148Z,28.77
2022-12-03T06:56:22.332Z,23.00
2022-12-03T06:58:52.066Z,30.57
2022-12-03T07:01:20.354Z,30.10
2022-12-03T07:03:49.034Z,25.47
2022-12-03T07:06:17.462Z,31.20
2022-12-03T07:08:45.713Z,31.50
2022-12-03T07:11:27.820Z,30.97
2022-12-03T07:14:04.424Z,34.57
2022-12-03T07:16:33.561Z,31.73
2022-12-03T07:19:01.695Z,87.17
2022-12-03T07:21:30.546Z,31.00
2022-12-03T07:23:58.763Z,41.27
2022-12-03T07:26:26.766Z,35.10
2022-12-03T07:28:54.933Z,44.20
2022-12-03T07:31:24.982Z,36.77
2022-12-03T07:33:53.176Z,56.43
2022-12-03T07:36:21.320Z,33.70
2022-12-03T07:38:49.824Z,31.17
2022-12-03T07:41:17.922Z,31.93
2022-12-03T07:43:49.035Z,31.53
2022-12-03T07:46:17.227Z,29.63
2022-12-03T07:48:46.866Z,28.47
2022-12-03T07:51:15.617Z,35.67
2022-12-03T07:53:43.955Z,36.23
2022-12-03T07:56:30.865Z,44.03
2022-12-03T07:58:58.982Z,32.50
2022-12-03T08:01:27.377Z,37.67
2022-12-03T08:03:56.847Z,29.93
2022-12-03T08:06:24.891Z,31.50
2022-12-03T08:08:52.966Z,25.90
2022-12-03T08:11:21.057Z,28.97
2022-12-03T08:13:49.241Z,30.77
2022-12-03T08:16:19.432Z,32.30
2022-12-03T08:18:49.160Z,33.37
2022-12-03T08:21:20.586Z,28.87
2022-12-03T08:23:49.022Z,27.53
2022-12-03T08:26:22.927Z,29.67
2022-12-03T08:28:51.018Z,23.07
2022-12-03T08:31:21.118Z,29.43
2022-12-03T08:33:51.151Z,29.90
2022-12-03T08:36:24.140Z,31.70
2022-12-03T08:38:53.921Z,25.57
2022-12-03T08:41:36.469Z,29.67
2022-12-03T08:44:16.941Z,29.47
2022-12-03T08:46:45.575Z,26.57
2022-12-03T08:49:15.021Z,30.23
2022-12-03T08:51:45.210Z,29.43
2022-12-03T08:54:16.164Z,32.10
2022-12-03T08:56:45.045Z,28.93
2022-12-03T08:59:26.836Z,26.37
2022-12-03T09:01:55.311Z,29.60
2022-12-03T09:04:27.719Z,31.27
2022-12-03T09:06:57.711Z,26.17
2022-12-03T09:09:25.858Z,27.70
2022-12-03T09:11:55.187Z,28.57
2022-12-03T09:14:25.328Z,26.10
2022-12-03T09:16:56.100Z,24.57
2022-12-03T09:19:25.485Z,29.43
2022-12-03T09:21:54.102Z,21.97
2022-12-03T09:24:24.667Z,26.40
2022-12-03T09:26:52.869Z,24.50
2022-12-03T09:29:21.764Z,23.73
2022-12-03T09:31:50.121Z,22.17
2022-12-03T09:34:18.623Z,19.80
2022-12-03T09:36:46.867Z,17.53
2022-12-03T09:39:15.177Z,20.87
2022-12-03T09:41:45.799Z,20.87
2022-12-03T09:44:17.822Z,21.20
2022-12-03T09:46:47.679Z,18.00
2022-12-03T09:49:17.909Z,22.03
2022-12-03T09:51:47.040Z,19.73
2022-12-03T09:54:24.275Z,21.63
2022-12-03T09:56:55.011Z,19.87
2022-12-03T09:59:26.577Z,18.80
2022-12-03T10:01:55.704Z,20.97
2022-12-03T10:04:24.550Z,19.97
2022-12-03T10:06:52.853Z,22.50
2022-12-03T10:09:26.355Z,21.30
2022-12-03T10:11:56.682Z,22.37
2022-12-03T10:14:25.286Z,22.83
2022-12-03T10:16:53.505Z,29.50
2022-12-03T10:19:25.731Z,26.67
2022-12-03T10:21:53.933Z,29.27
2022-12-03T10:24:25.820Z,37.33
2022-12-03T10:26:57.891Z,27.80
2022-12-03T10:29:33.317Z,31.27
2022-12-03T10:32:03.886Z,41.27
2022-12-03T10:34:34.376Z,33.70
2022-12-03T10:37:14.969Z,24.50
2022-12-03T10:40:01.596Z,28.20
2022-12-03T10:42:33.505Z,29.37
2022-12-03T10:45:18.085Z,29.10
2022-12-03T10:48:04.514Z,21.33
2022-12-03T10:50:33.868Z,35.77
2022-12-03T10:53:02.449Z,36.50
2022-12-03T10:55:34.870Z,54.90
2022-12-03T10:58:04.506Z,42.43
2022-12-03T11:00:32.675Z,35.23
2022-12-03T11:03:00.796Z,32.23
2022-12-03T11:05:29.632Z,33.53
2022-12-03T11:07:58.171Z,36.27
2022-12-03T11:10:26.705Z,42.23
2022-12-03T11:13:43.592Z,38.90
2022-12-03T11:16:12.120Z,46.27
2022-12-03T11:19:00.296Z,49.03
2022-12-03T11:21:28.521Z,29.10
2022-12-03T11:24:05.055Z,37.10
2022-12-03T11:27:08.594Z,32.20
2022-12-03T11:29:59.520Z,26.37
2022-12-03T11:33:17.110Z,32.90
2022-12-03T11:36:31.599Z,25.60
2022-12-03T11:39:04.782Z,25.47
2022-12-03T11:41:34.921Z,21.07
2022-12-03T11:44:22.139Z,13.97
2022-12-03T11:46:51.858Z,18.20
2022-12-03T11:49:33.272Z,16.57
2022-12-03T11:52:05.580Z,19.53
2022-12-03T11:54:36.450Z,16.77
2022-12-03T11:57:04.851Z,17.63
2022-12-03T11:59:33.098Z,19.00
2022-12-03T12:02:02.657Z,16.53
2022-12-03T12:04:35.162Z,18.30
2022-12-03T12:07:03.618Z,22.20
2022-12-03T12:09:55.049Z,16.40
2022-12-03T12:12:30.957Z,17.97
2022-12-03T12:15:01.303Z,15.17
2022-12-03T12:17:35.788Z,12.50
2022-12-03T12:36:37.548Z,16.40
2022-12-03T12:39:12.267Z,12.00
2022-12-03T12:41:42.193Z,10.50
2022-12-03T12:44:11.281Z,11.83
2022-12-03T12:46:47.806Z,14.53
2022-12-03T12:49:20.583Z,13.77
2022-12-03T12:51:50.795Z,14.73
2022-12-03T12:54:19.720Z,11.00
2022-12-03T12:56:50.240Z,12.60
2022-12-03T12:59:20.138Z,15.33
2022-12-03T13:01:50.251Z,12.40
2022-12-03T13:04:21.502Z,16.17
2022-12-03T13:06:54.314Z,15.73
2022-12-03T13:09:24.607Z,16.17
2022-12-03T13:11:55.178Z,16.40
2022-12-03T13:14:24.778Z,12.57
2022-12-03T13:16:54.891Z,15.17
2022-12-03T13:19:25.295Z,14.07
2022-12-03T13:21:56.460Z,12.80
2022-12-03T13:24:34.742Z,13.83
2022-12-03T13:27:21.750Z,36.17
2022-12-03T13:29:52.634Z,15.17
2022-12-03T13:32:23.249Z,16.10
2022-12-03T13:34:51.604Z,14.77
2022-12-03T13:37:24.000Z,18.17
2022-12-03T13:39:54.151Z,17.37
2022-12-03T13:42:42.786Z,17.80
2022-12-03T13:45:31.812Z,17.33
2022-12-03T13:48:01.960Z,18.17
2022-12-03T13:50:37.727Z,23.50
2022-12-03T13:53:21.358Z,15.17
2022-12-03T13:55:51.415Z,13.43
2022-12-03T13:58:19.563Z,15.73
2022-12-03T14:00:47.895Z,13.70
2022-12-03T14:03:16.080Z,17.53
2022-12-03T14:05:44.210Z,14.53
2022-12-03T14:08:14.080Z,11.20
2022-12-03T14:10:42.450Z,13.00
2022-12-03T14:13:10.474Z,14.00
2022-12-03T14:15:38.700Z,14.77
2022-12-03T14:18:06.925Z,13.93
2022-12-03T14:20:36.564Z,13.17
2022-12-03T14:23:04.747Z,13.70
2022-12-03T14:25:34.452Z,15.53
2022-12-03T14:28:02.479Z,31.43
2022-12-03T14:30:30.578Z,27.30
2022-12-03T14:32:58.761Z,16.97
2022-12-03T14:35:26.890Z,25.40
2022-12-03T14:37:55.060Z,16.97
2022-12-03T14:40:23.417Z,18.10
2022-12-03T14:42:52.838Z,17.77
2022-12-03T14:45:23.193Z,16.00
2022-12-03T14:47:51.429Z,18.00
2022-12-03T14:50:19.479Z,24.00
2022-12-03T14:52:47.701Z,24.80
2022-12-03T14:55:15.988Z,42.93
2022-12-03T14:57:44.237Z,50.13
2022-12-03T15:00:15.242Z,46.67
2022-12-03T15:02:43.749Z,25.77
2022-12-03T15:05:11.982Z,21.47
2022-12-03T15:07:40.634Z,17.77
2022-12-03T15:10:09.832Z,17.20
2022-12-03T15:12:37.889Z,14.97
2022-12-03T15:15:06.702Z,13.83
2022-12-03T15:17:36.210Z,13.70
2022-12-03T15:20:05.173Z,15.83
2022-12-03T15:22:33.269Z,17.73
2022-12-03T15:25:02.595Z,14.67
2022-12-03T15:27:30.717Z,16.30
2022-12-03T15:29:58.899Z,14.70
2022-12-03T15:32:27.003Z,20.40
2022-12-03T15:34:56.793Z,16.90
2022-12-03T15:37:27.677Z,17.27
2022-12-03T15:39:55.922Z,15.37
2022-12-03T15:42:24.515Z,12.00
2022-12-03T15:44:52.605Z,14.97
2022-12-03T15:47:20.784Z,13.53
2022-12-03T15:49:49.032Z,12.67
2022-12-03T15:52:18.829Z,14.80
2022-12-03T15:54:47.020Z,11.80
2022-12-03T15:57:15.177Z,13.40
2022-12-03T15:59:43.835Z,15.33
2022-12-03T16:02:12.535Z,15.63
2022-12-03T16:04:41.105Z,12.53
2022-12-03T16:07:09.479Z,14.60
2022-12-03T16:09:38.998Z,15.10
2022-12-03T16:12:07.344Z,13.03
2022-12-03T16:14:35.438Z,15.13
2022-12-03T16:17:03.517Z,15.40
2022-12-03T16:19:31.614Z,14.33
2022-12-03T16:21:59.831Z,18.27
2022-12-03T16:24:27.910Z,15.43
2022-12-03T16:27:00.132Z,19.50
2022-12-03T16:29:28.329Z,16.40
2022-12-03T16:31:56.500Z,15.53
2022-12-03T16:34:24.664Z,12.97
2022-12-03T16:36:53.013Z,13.60
2022-12-03T16:39:21.073Z,14.57
2022-12-03T16:41:49.228Z,21.10
2022-12-03T16:44:32.134Z,18.47
2022-12-03T16:47:01.633Z,18.17
2022-12-03T16:49:29.916Z,23.47
2022-12-03T16:51:57.907Z,36.00
2022-12-03T16:54:26.158Z,21.77
2022-12-03T16:56:54.271Z,17.97
2022-12-03T16:59:23.866Z,20.77
2022-12-03T17:01:52.111Z,13.80
2022-12-03T17:04:20.323Z,16.87
2022-12-03T17:06:48.384Z,19.03
2022-12-03T17:09:16.517Z,19.40
2022-12-03T17:11:44.615Z,25.90
2022-12-03T17:14:12.928Z,41.30
2022-12-03T17:16:42.446Z,49.27
2022-12-03T17:19:10.601Z,30.80
2022-12-03T17:21:38.678Z,31.77
2022-12-03T17:24:07.341Z,45.33
2022-12-03T17:26:35.391Z,22.30
2022-12-03T17:29:03.430Z,44.53
2022-12-03T17:31:34.647Z,48.90
2022-12-03T17:34:06.637Z,31.10
2022-12-03T17:36:34.765Z,33.10
2022-12-03T17:39:02.821Z,25.20
2022-12-03T17:41:30.941Z,23.67
2022-12-03T17:43:58.999Z,19.20
2022-12-03T17:46:27.188Z,24.77
2022-12-03T17:48:55.351Z,26.83
2022-12-03T17:51:25.119Z,22.93
2022-12-03T17:53:53.249Z,19.10
2022-12-03T17:56:22.052Z,23.00
2022-12-03T17:58:50.144Z,19.57
2022-12-03T18:01:18.333Z,17.27
2022-12-03T18:03:46.535Z,47.30
2022-12-03T18:06:14.702Z,33.03
2022-12-03T18:08:44.311Z,27.70
2022-12-03T18:11:12.524Z,23.40
2022-12-03T18:13:40.612Z,40.23
2022-12-03T18:16:09.335Z,22.73
2022-12-03T18:18:38.051Z,54.53
2022-12-03T18:21:06.460Z,31.37
2022-12-03T18:23:35.467Z,19.83
2022-12-03T18:26:05.932Z,17.70
2022-12-03T18:28:34.183Z,14.43
2022-12-03T18:31:02.339Z,14.40
2022-12-03T18:33:30.547Z,18.27
2022-12-03T18:35:59.400Z,14.10
2022-12-03T18:38:34.422Z,15.40
2022-12-03T18:41:02.492Z,15.73
2022-12-03T18:43:31.990Z,16.27
2022-12-03T18:46:00.164Z,16.80
2022-12-03T18:48:28.313Z,16.77
2022-12-03T18:50:56.624Z,17.07
2022-12-03T18:53:25.137Z,16.87
2022-12-03T18:55:53.255Z,17.97
2022-12-03T18:58:21.327Z,17.70
2022-12-03T19:00:50.787Z,20.80
2022-12-03T19:03:19.034Z,22.83
2022-12-03T19:05:47.303Z,21.40
2022-12-03T19:08:15.543Z,19.33
2022-12-03T19:10:44.369Z,23.37
2022-12-03T19:13:13.453Z,29.67
2022-12-03T19:15:41.824Z,27.93
2022-12-03T19:18:11.271Z,26.53
2022-12-03T19:20:42.047Z,31.30
2022-12-03T19:23:10.577Z,21.63
2022-12-03T19:25:38.783Z,26.10
2022-12-03T19:28:06.877Z,25.73
2022-12-03T19:30:35.053Z,25.07
2022-12-03T19:33:03.178Z,26.50
2022-12-03T19:35:32.820Z,24.40
2022-12-03T19:38:00.921Z,27.20
2022-12-03T19:40:29.087Z,31.10
2022-12-03T19:42:57.196Z,25.93
2022-12-03T19:45:25.449Z,26.53
2022-12-03T19:47:53.921Z,32.00
2022-12-03T19:50:23.482Z,28.67
2022-12-03T19:52:53.273Z,26.47
2022-12-03T19:55:21.474Z,33.13
2022-12-03T19:57:50.072Z,32.23
2022-12-03T20:00:18.510Z,27.83
2022-12-03T20:02:49.904Z,31.13
2022-12-03T20:05:18.326Z,27.67
2022-12-03T20:07:46.496Z,30.03
2022-12-03T20:10:16.112Z,29.73
2022-12-03T20:12:44.296Z,34.90
2022-12-03T20:15:13.761Z,31.20
2022-12-03T20:17:41.961Z,35.97
2022-12-03T20:20:10.995Z,29.77
2022-12-03T20:22:39.214Z,32.53
2022-12-03T20:25:08.167Z,32.07
2022-12-03T20:27:37.825Z,30.53
2022-12-03T20:30:07.126Z,37.63
2022-12-03T20:32:40.541Z,39.33
2022-12-03T20:35:11.997Z,32.23
2022-12-03T20:37:40.723Z,32.60
2022-12-03T20:40:10.025Z,33.50
2022-12-03T20:42:39.617Z,32.70
2022-12-03T20:45:08.931Z,36.60
2022-12-03T20:47:37.010Z,38.30
2022-12-03T20:50:09.717Z,37.53
2022-12-03T20:52:38.006Z,37.33
2022-12-03T20:55:06.631Z,41.77
2022-12-03T20:57:34.899Z,37.83
2022-12-03T21:00:05.442Z,38.27
2022-12-03T21:02:33.558Z,37.70
2022-12-03T21:05:01.826Z,31.50
2022-12-03T21:07:30.029Z,29.87
2022-12-03T21:09:58.342Z,31.40
2022-12-03T21:12:26.555Z,34.63
2022-12-03T21:14:54.762Z,31.13
2022-12-03T21:17:24.257Z,32.40
2022-12-03T21:19:52.833Z,34.37
2022-12-03T21:22:21.350Z,33.53
2022-12-03T21:24:49.504Z,33.23
2022-12-03T21:27:21.588Z,34.80
2022-12-03T21:29:50.305Z,33.40
2022-12-03T21:32:18.580Z,32.57
2022-12-03T21:34:48.142Z,31.83
2022-12-03T21:37:16.141Z,34.70
2022-12-03T21:39:44.389Z,35.53
2022-12-03T21:42:36.241Z,33.90
2022-12-03T21:45:00.611Z,39.77
2022-12-03T21:47:33.465Z,35.17
2022-12-03T21:50:08.161Z,35.60
2022-12-03T21:52:36.629Z,35.60
2022-12-03T21:55:05.335Z,35.17
2022-12-03T21:57:36.184Z,35.53
2022-12-03T22:00:05.847Z,37.80
2022-12-03T22:02:34.494Z,38.37
2022-12-03T22:05:03.067Z,34.77
2022-12-03T22:07:34.068Z,35.00
2022-12-03T22:10:02.127Z,36.63
2022-12-03T22:12:30.306Z,34.73
2022-12-03T22:14:58.460Z,29.70
2022-12-03T22:17:26.941Z,31.67
2022-12-03T22:19:55.512Z,33.80
2022-12-03T22:22:23.673Z,32.87
2022-12-03T22:24:53.157Z,33.70
2022-12-03T22:27:21.207Z,33.03
2022-12-03T22:29:49.362Z,31.93
2022-12-03T22:32:17.448Z,34.83
2022-12-03T22:34:45.662Z,34.67
2022-12-03T22:37:13.895Z,36.70
2022-12-03T22:39:42.075Z,38.23
2022-12-03T22:42:11.712Z,36.63
2022-12-03T22:44:39.690Z,37.63
2022-12-03T22:47:07.850Z,41.20
2022-12-03T22:49:36.041Z,32.97
2022-12-03T22:52:04.143Z,37.50
2022-12-03T22:54:32.214Z,37.10
2022-12-03T22:57:00.326Z,39.40
2022-12-03T22:59:29.801Z,33.10
2022-12-03T23:01:57.796Z,37.13
2022-12-03T23:04:25.913Z,35.47
2022-12-03T23:06:53.987Z,39.23
2022-12-03T23:09:22.179Z,37.27
2022-12-03T23:11:50.335Z,37.77
2022-12-03T23:14:18.405Z,35.43
2022-12-03T23:16:47.855Z,39.00
2022-12-03T23:19:15.960Z,40.73
2022-12-03T23:21:44.083Z,45.00
2022-12-03T23:24:12.180Z,37.20
2022-12-03T23:26:40.378Z,41.97
2022-12-03T23:29:08.733Z,32.77
2022-12-03T23:31:37.015Z,41.33
2022-12-03T23:34:07.372Z,36.53
2022-12-03T23:36:36.096Z,36.17
2022-12-03T23:39:04.277Z,38.37
2022-12-03T23:41:32.414Z,37.13
2022-12-03T23:44:00.487Z,40.07
2022-12-03T23:46:28.888Z,47.03
2022-12-03T23:48:58.820Z,48.57
2022-12-03T23:51:28.782Z,42.90
2022-12-03T23:53:57.318Z,46.37
2022-12-03T23:56:29.242Z,43.10
2022-12-03T23:58:59.662Z,39.80
